Terminal Aerodrome Forecast
Issued by NWS Mt. Holly, NJ

Home | Current Version | Previous Version | Text Only | Print | Product List | Glossary On
Versions: 1 2 3 4 5 6 7 8 9 10 11 12 13 14 15 16 17 18
000
FTUS41 KPHI 310304 AAA
TAFILG
TAF AMD
KILG 310304Z 3103/3124 25008KT P6SM SCT005
      TEMPO 3103/3105 5SM BR BKN005
     FM310500 31005KT P6SM SKC
     FM311500 30011KT P6SM SKC=

USA.gov is the U.S. government's official web portal to all federal, state and local government web resources and services.